createdAt,value
2023-08-26T00:02:39.005Z,21.29
2023-08-26T00:07:44.580Z,21.36
2023-08-26T00:12:50.096Z,21.42
2023-08-26T00:17:56.120Z,21.36
2023-08-26T00:23:02.670Z,21.27
2023-08-26T00:28:08.317Z,21.20
2023-08-26T00:33:13.860Z,21.20
2023-08-26T00:38:22.376Z,21.20
2023-08-26T00:43:30.245Z,21.23
2023-08-26T00:48:36.721Z,21.20
2023-08-26T00:53:42.779Z,21.17
2023-08-26T00:58:48.937Z,21.11
2023-08-26T01:03:54.924Z,21.07
2023-08-26T01:09:00.866Z,21.07
2023-08-26T01:14:17.861Z,21.08
2023-08-26T01:19:37.373Z,21.04
2023-08-26T01:24:43.280Z,21.01
2023-08-26T01:29:48.812Z,20.98
2023-08-26T01:34:57.619Z,20.97
2023-08-26T01:40:07.485Z,20.97
2023-08-26T01:45:14.441Z,21.00
2023-08-26T01:50:21.209Z,21.03
2023-08-26T01:55:26.765Z,21.08
2023-08-26T02:00:33.307Z,21.09
2023-08-26T02:05:39.079Z,21.01
2023-08-26T02:10:44.610Z,20.94
2023-08-26T02:15:53.439Z,20.84
2023-08-26T02:20:58.992Z,20.75
2023-08-26T02:26:04.671Z,20.72
2023-08-26T02:31:10.143Z,20.67
2023-08-26T02:36:15.766Z,20.58
2023-08-26T02:41:21.229Z,20.53
2023-08-26T02:46:28.818Z,20.50
2023-08-26T02:51:34.357Z,20.42
2023-08-26T02:56:39.938Z,20.30
2023-08-26T03:01:46.769Z,20.18
2023-08-26T03:06:52.418Z,20.03
2023-08-26T03:11:59.088Z,19.86
2023-08-26T03:17:05.014Z,19.70
2023-08-26T03:22:10.707Z,19.55
2023-08-26T03:27:17.856Z,19.45
2023-08-26T03:32:23.615Z,19.43
2023-08-26T03:37:29.278Z,19.39
2023-08-26T03:42:34.773Z,19.33
2023-08-26T03:47:40.574Z,19.26
2023-08-26T03:52:46.237Z,19.25
2023-08-26T03:57:52.421Z,19.33
2023-08-26T04:02:58.123Z,19.35
2023-08-26T04:08:04.372Z,19.30
2023-08-26T04:13:23.488Z,19.32
2023-08-26T04:18:29.204Z,19.48
2023-08-26T04:23:34.663Z,19.62
2023-08-26T04:28:40.316Z,19.80
2023-08-26T04:33:45.976Z,19.99
2023-08-26T04:38:51.644Z,20.23
2023-08-26T04:43:58.252Z,20.55
2023-08-26T04:49:03.794Z,21.90
2023-08-26T04:54:09.409Z,24.25
2023-08-26T04:59:15.199Z,26.08
2023-08-26T05:04:22.043Z,27.00
2023-08-26T05:09:29.228Z,28.47
2023-08-26T05:14:34.848Z,29.84
2023-08-26T05:19:40.886Z,30.57
2023-08-26T05:24:46.849Z,31.76
2023-08-26T05:29:52.685Z,32.70
2023-08-26T05:35:02.664Z,33.65
2023-08-26T05:40:10.105Z,34.59
2023-08-26T05:45:16.705Z,35.59
2023-08-26T05:50:22.600Z,36.24
2023-08-26T05:55:30.678Z,36.94
2023-08-26T06:00:37.270Z,37.94
2023-08-26T06:05:43.774Z,38.90
2023-08-26T06:10:54.343Z,39.79
2023-08-26T06:16:01.235Z,40.05
2023-08-26T06:21:07.542Z,40.51
2023-08-26T06:26:14.626Z,41.10
2023-08-26T06:31:20.672Z,41.53
2023-08-26T06:36:26.850Z,41.87
2023-08-26T06:41:31.816Z,42.18
2023-08-26T06:46:37.651Z,42.34
2023-08-26T06:51:43.294Z,42.68
2023-08-26T06:56:49.320Z,42.90
2023-08-26T07:01:55.224Z,43.25
2023-08-26T07:07:00.921Z,43.43
2023-08-26T07:12:07.310Z,43.51
2023-08-26T07:17:13.461Z,43.68
2023-08-26T07:22:27.113Z,43.82
2023-08-26T07:27:34.966Z,43.91
2023-08-26T07:32:40.910Z,44.10
2023-08-26T07:37:46.968Z,44.30
2023-08-26T07:42:52.915Z,44.32
2023-08-26T07:53:06.988Z,44.71
2023-08-26T07:58:12.592Z,44.50
2023-08-26T08:03:18.335Z,44.49
2023-08-26T08:08:26.003Z,44.87
2023-08-26T08:13:32.120Z,44.91
2023-08-26T08:18:37.997Z,44.88
2023-08-26T08:23:45.124Z,44.71
2023-08-26T08:28:50.977Z,45.02
2023-08-26T08:33:56.421Z,45.35
2023-08-26T08:39:02.300Z,45.26
2023-08-26T08:44:14.715Z,45.34
2023-08-26T08:49:20.235Z,45.12
2023-08-26T08:54:26.809Z,44.87
2023-08-26T08:59:36.439Z,44.68
2023-08-26T09:04:44.124Z,44.41
2023-08-26T09:10:01.190Z,44.60
2023-08-26T09:15:09.675Z,44.84
2023-08-26T09:20:15.396Z,44.79
2023-08-26T09:25:21.137Z,44.49
2023-08-26T09:30:25.216Z,44.34
2023-08-26T09:40:41.073Z,44.30
2023-08-26T09:45:46.828Z,43.99
2023-08-26T09:50:57.289Z,43.78
2023-08-26T09:56:05.242Z,43.74
2023-08-26T10:01:11.547Z,43.67
2023-08-26T10:06:19.115Z,43.69
2023-08-26T10:11:28.983Z,43.63
2023-08-26T10:16:35.817Z,43.10
2023-08-26T10:21:42.003Z,42.34
2023-08-26T10:26:48.149Z,42.29
2023-08-26T10:31:53.825Z,41.01
2023-08-26T10:36:59.688Z,39.97
2023-08-26T10:42:17.418Z,38.92
2023-08-26T10:47:37.762Z,37.66
2023-08-26T10:52:44.171Z,36.41
2023-08-26T10:58:14.152Z,35.42
2023-08-26T11:03:21.647Z,34.62
2023-08-26T11:08:27.249Z,33.89
2023-08-26T11:13:33.552Z,33.10
2023-08-26T11:18:39.214Z,32.29
2023-08-26T11:23:47.132Z,31.75
2023-08-26T11:28:53.083Z,32.25
2023-08-26T11:33:58.721Z,33.54
2023-08-26T11:39:04.465Z,34.20
2023-08-26T11:44:17.221Z,34.97
2023-08-26T11:49:22.887Z,35.49
2023-08-26T11:54:29.319Z,35.66
2023-08-26T11:59:40.866Z,35.61
2023-08-26T12:04:46.760Z,35.85
2023-08-26T12:09:53.575Z,35.86
2023-08-26T12:15:09.648Z,35.92
2023-08-26T12:20:26.480Z,35.78
2023-08-26T12:25:36.560Z,35.30
2023-08-26T12:30:47.306Z,34.62
2023-08-26T12:36:03.957Z,34.15
2023-08-26T12:41:09.814Z,34.14
2023-08-26T12:46:15.741Z,34.37
2023-08-26T12:51:21.196Z,34.88
2023-08-26T12:56:26.730Z,34.77
2023-08-26T13:01:32.378Z,34.54
2023-08-26T13:06:38.354Z,34.45
2023-08-26T13:11:44.115Z,34.29
2023-08-26T13:16:49.867Z,34.02
2023-08-26T13:21:55.383Z,33.76
2023-08-26T13:27:01.012Z,33.10
2023-08-26T13:32:07.328Z,32.55
2023-08-26T13:37:13.196Z,32.06
2023-08-26T13:42:18.740Z,31.56
2023-08-26T13:47:24.497Z,31.04
2023-08-26T13:52:30.064Z,30.71
2023-08-26T13:57:38.145Z,30.61
2023-08-26T14:02:44.012Z,30.59
2023-08-26T14:07:49.799Z,30.47
2023-08-26T14:12:55.420Z,30.29
2023-08-26T14:18:01.625Z,30.16
2023-08-26T14:23:07.409Z,30.17
2023-08-26T14:28:14.244Z,30.15
2023-08-26T14:33:19.791Z,30.12
2023-08-26T14:38:25.599Z,29.99
2023-08-26T14:43:31.144Z,29.87
2023-08-26T14:48:36.824Z,29.76
2023-08-26T14:53:42.313Z,29.67
2023-08-26T14:58:48.063Z,29.57
2023-08-26T15:03:53.651Z,29.35
2023-08-26T15:08:59.516Z,29.03
2023-08-26T15:14:06.587Z,28.70
2023-08-26T15:19:12.054Z,28.38
2023-08-26T15:24:17.569Z,28.15
2023-08-26T15:29:23.243Z,27.94
2023-08-26T15:34:28.925Z,27.76
2023-08-26T15:39:35.546Z,27.57
2023-08-26T15:44:41.068Z,27.45
2023-08-26T15:49:48.283Z,27.36
2023-08-26T15:54:53.828Z,27.25
2023-08-26T15:59:59.649Z,27.15
2023-08-26T16:05:05.841Z,27.02
2023-08-26T16:10:13.740Z,26.87
2023-08-26T16:15:19.531Z,26.76
2023-08-26T16:20:25.242Z,26.64
2023-08-26T16:25:30.734Z,26.58
2023-08-26T16:30:36.888Z,26.57
2023-08-26T16:35:42.786Z,26.59
2023-08-26T16:40:52.694Z,26.64
2023-08-26T16:45:59.225Z,26.61
2023-08-26T16:51:05.350Z,26.59
2023-08-26T16:56:10.959Z,26.56
2023-08-26T17:01:16.703Z,26.51
2023-08-26T17:06:22.810Z,26.42
2023-08-26T17:11:28.744Z,26.30
2023-08-26T17:16:35.539Z,26.21
2023-08-26T17:21:41.216Z,26.19
2023-08-26T17:26:46.832Z,26.15
2023-08-26T17:31:52.426Z,26.08
2023-08-26T17:36:58.052Z,25.98
2023-08-26T17:42:04.754Z,25.84
2023-08-26T17:47:10.408Z,25.58
2023-08-26T17:52:16.132Z,25.29
2023-08-26T17:57:24.368Z,25.08
2023-08-26T18:02:30.011Z,24.84
2023-08-26T18:07:36.004Z,24.59
2023-08-26T18:12:42.433Z,24.26
2023-08-26T18:17:48.043Z,23.95
2023-08-26T18:22:53.808Z,23.72
2023-08-26T18:27:59.306Z,23.52
2023-08-26T18:33:06.052Z,23.34
2023-08-26T18:38:18.198Z,23.11
2023-08-26T18:43:24.109Z,22.92
2023-08-26T18:48:29.673Z,22.76
2023-08-26T18:53:37.330Z,22.62
2023-08-26T18:58:42.995Z,22.55
2023-08-26T19:03:48.728Z,22.44
2023-08-26T19:08:55.605Z,22.35
2023-08-26T19:14:01.205Z,22.29
2023-08-26T19:19:07.054Z,22.25
2023-08-26T19:24:14.786Z,22.14
2023-08-26T19:29:20.414Z,22.03
2023-08-26T19:34:28.120Z,21.92
2023-08-26T19:39:33.645Z,21.89
2023-08-26T19:44:39.192Z,21.81
2023-08-26T19:49:44.751Z,21.68
2023-08-26T19:54:50.261Z,21.56
2023-08-26T19:59:56.372Z,21.46
2023-08-26T20:05:02.347Z,21.36
2023-08-26T20:10:09.922Z,21.25
2023-08-26T20:15:15.696Z,21.18
2023-08-26T20:20:21.695Z,21.10
2023-08-26T20:25:34.918Z,21.07
2023-08-26T20:30:57.620Z,21.04
2023-08-26T20:36:04.491Z,20.99
2023-08-26T20:41:11.064Z,20.91
2023-08-26T20:46:16.613Z,20.85
2023-08-26T20:51:23.438Z,20.82
2023-08-26T20:56:30.151Z,20.76
2023-08-26T21:01:36.210Z,20.69
2023-08-26T21:06:42.926Z,20.61
2023-08-26T21:11:48.705Z,20.55
2023-08-26T21:16:54.264Z,20.53
2023-08-26T21:21:59.900Z,20.49
2023-08-26T21:27:06.068Z,20.54
2023-08-26T21:32:11.753Z,20.53
2023-08-26T21:37:17.348Z,20.43
2023-08-26T21:42:22.848Z,20.33
2023-08-26T21:47:28.782Z,20.28
2023-08-26T21:52:34.469Z,20.25
2023-08-26T21:58:00.495Z,20.22
2023-08-26T22:03:06.806Z,20.17
2023-08-26T22:08:12.561Z,20.13
2023-08-26T22:13:18.224Z,20.11
2023-08-26T22:18:23.966Z,20.10
2023-08-26T22:23:30.744Z,20.08
2023-08-26T22:28:36.978Z,20.09
2023-08-26T22:33:43.308Z,20.07
2023-08-26T22:38:48.949Z,19.98
2023-08-26T22:43:54.504Z,19.92
2023-08-26T22:49:00.007Z,19.91
2023-08-26T22:54:06.271Z,19.90
2023-08-26T22:59:11.839Z,19.88
2023-08-26T23:04:17.439Z,19.81
2023-08-26T23:09:23.120Z,19.71
2023-08-26T23:14:28.985Z,19.64
2023-08-26T23:19:34.631Z,19.59
2023-08-26T23:24:40.358Z,19.58
2023-08-26T23:29:46.149Z,19.71
2023-08-26T23:34:52.014Z,19.76
2023-08-26T23:39:57.682Z,19.81
2023-08-26T23:45:03.414Z,19.90
2023-08-26T23:50:10.449Z,19.95
2023-08-26T23:55:16.815Z,19.96
